TimePST,TemperatureF,Dew PointF,Humidity,Sea Level PressureIn,VisibilityMPH,Wind Direction,Wind SpeedMPH,Gust SpeedMPH,PrecipitationIn,Events,Conditions,WindDirDegrees,DateUTC
12:00 AM,42.4,39.9,91,-9999,-9999.0,ESE,8.1,-,0.02,,Unknown,120,2013-01-07 08:00:00
1:00 AM,42,40,88,,,ESE,12.7,,,,,110,2013-01-07 09:00:00
1:00 AM,42.4,39.7,90,-9999,-9999.0,ESE,12.7,20.7,0.02,,Unknown,110,2013-01-07 09:00:00
2:00 AM,42.3,39.9,91,-9999,-9999.0,East,11.5,19.6,0.05,,Unknown,100,2013-01-07 10:00:00
3:00 AM,42.3,40.1,92,-9999,-9999.0,ESE,9.2,-,0.03,,Unknown,110,2013-01-07 11:00:00
4:00 AM,42,40,91,,,SE,9.2,,,,,130,2013-01-07 12:00:00
4:00 AM,42.3,40.3,93,-9999,-9999.0,SE,9.2,-,0.04,,Unknown,130,2013-01-07 12:00:00
5:00 AM,41.7,39.9,93,-9999,-9999.0,ESE,9.2,-,0.02,,Unknown,120,2013-01-07 13:00:00
6:00 AM,41.2,39.6,94,-9999,-9999.0,SSE,3.5,-,0.04,,Unknown,150,2013-01-07 14:00:00
7:00 AM,42,40,90,,,SE,6.9,,,,,130,2013-01-07 15:00:00
7:00 AM,41.7,40.1,94,-9999,-9999.0,SE,6.9,-,0.02,,Unknown,130,2013-01-07 15:00:00
8:00 AM,42.4,41.0,95,-9999,-9999.0,SSE,6.9,-,0.03,,Unknown,150,2013-01-07 16:00:00
9:00 AM,43.5,42.1,95,-9999,-9999.0,South,11.5,-,0.02,,Unknown,170,2013-01-07 17:00:00
10:00 AM,44,42,92,,,South,16.1,,,,,190,2013-01-07 18:00:00
10:00 AM,43.7,42.4,95,-9999,-9999.0,South,16.1,-,0.02,,Unknown,190,2013-01-07 18:00:00
11:00 AM,45.0,43.7,95,-9999,-9999.0,SSW,21.9,-,0.01,,Unknown,210,2013-01-07 19:00:00
12:00 PM,47.3,45.9,95,-9999,-9999.0,WSW,20.7,27.6,N/A,,Unknown,240,2013-01-07 20:00:00
1:00 PM,47,45,92,,,SW,24.2,,,,,230,2013-01-07 21:00:00
1:00 PM,46.9,45.3,94,-9999,-9999.0,SW,24.2,31.1,0.01,,Unknown,230,2013-01-07 21:00:00
2:00 PM,46.6,45.0,94,-9999,-9999.0,WSW,25.3,39.1,0.02,,Unknown,240,2013-01-07 22:00:00
3:00 PM,47.1,42.8,85,-9999,-9999.0,WSW,33.4,47.2,N/A,,Unknown,240,2013-01-07 23:00:00
4:00 PM,46,41,75,,,WSW,33.4,,,,,240,2013-01-08 00:00:00
4:00 PM,46.4,40.6,80,-9999,-9999.0,WSW,33.4,44.9,N/A,,Unknown,240,2013-01-08 00:00:00
5:00 PM,46.2,40.1,79,-9999,-9999.0,WSW,29.9,43.7,N/A,,Unknown,240,2013-01-08 01:00:00
6:00 PM,45.9,39.9,80,-9999,-9999.0,WSW,27.6,39.1,N/A,,Unknown,250,2013-01-08 02:00:00
7:00 PM,46,40,73,,,WSW,21.9,,,,,250,2013-01-08 03:00:00
7:00 PM,45.9,40.1,80,-9999,-9999.0,WSW,21.9,35.7,N/A,,Unknown,250,2013-01-08 03:00:00
8:00 PM,45.7,40.1,81,-9999,-9999.0,West,20.7,33.4,N/A,,Unknown,260,2013-01-08 04:00:00
9:00 PM,45.1,39.4,80,-9999,-9999.0,West,20.7,33.4,N/A,,Unknown,260,2013-01-08 05:00:00
10:00 PM,45,39,72,,,West,17.3,,,,,260,2013-01-08 06:00:00
10:00 PM,45.1,38.8,79,-9999,-9999.0,West,17.3,26.5,N/A,,Unknown,260,2013-01-08 06:00:00
11:00 PM,45.0,38.5,78,-9999,-9999.0,WSW,11.5,-,N/A,,Unknown,250,2013-01-08 07:00:00